sensor_id;sensor_type;location;lat;lon;timestamp;pressure;altitude;pressure_sealevel;temperature;humidity
65897;BME280;52677;50.898;10.854;2023-01-26T00:01:30;99202.53;;;-3.43;100.00
65897;BME280;52677;50.898;10.854;2023-01-26T00:03:30;99189.25;;;-3.40;100.00
65897;BME280;52677;50.898;10.854;2023-01-26T00:05:30;99195.78;;;-3.35;100.00
65897;BME280;52677;50.898;10.854;2023-01-26T00:07:31;99197.66;;;-3.36;100.00
65897;BME280;52677;50.898;10.854;2023-01-26T00:09:31;99192.25;;;-3.36;100.00
65897;BME280;52677;50.898;10.854;2023-01-26T00:11:31;99192.25;;;-3.36;100.00
65897;BME280;52677;50.898;10.854;2023-01-26T00:13:32;99184.94;;;-3.35;100.00
65897;BME280;52677;50.898;10.854;2023-01-26T00:15:34;99183.06;;;-3.35;100.00
65897;BME280;52677;50.898;10.854;2023-01-26T00:17:35;99181.16;;;-3.34;100.00
65897;BME280;52677;50.898;10.854;2023-01-26T00:19:37;99187.66;;;-3.35;100.00
65897;BME280;52677;50.898;10.854;2023-01-26T00:21:37;99180.63;;;-3.36;100.00
65897;BME280;52677;50.898;10.854;2023-01-26T00:23:37;99172.78;;;-3.38;100.00
65897;BME280;52677;50.898;10.854;2023-01-26T00:25:38;99171.41;;;-3.35;100.00
65897;BME280;52677;50.898;10.854;2023-01-26T00:27:41;99171.16;;;-3.34;100.00
65897;BME280;52677;50.898;10.854;2023-01-26T00:29:41;99170.34;;;-3.34;100.00
65897;BME280;52677;50.898;10.854;2023-01-26T00:31:41;99159.25;;;-3.33;100.00
65897;BME280;52677;50.898;10.854;2023-01-26T00:33:42;99160.03;;;-3.32;100.00
65897;BME280;52677;50.898;10.854;2023-01-26T00:35:42;99157.09;;;-3.31;100.00
65897;BME280;52677;50.898;10.854;2023-01-26T00:37:43;99153.53;;;-3.31;100.00
65897;BME280;52677;50.898;10.854;2023-01-26T00:39:44;99163.84;;;-3.28;100.00
65897;BME280;52677;50.898;10.854;2023-01-26T00:41:44;99155.72;;;-3.23;100.00
65897;BME280;52677;50.898;10.854;2023-01-26T00:44:03;99148.97;;;-3.26;100.00
65897;BME280;52677;50.898;10.854;2023-01-26T00:46:03;99151.94;;;-3.27;100.00
65897;BME280;52677;50.898;10.854;2023-01-26T00:48:04;99161.69;;;-3.21;100.00
65897;BME280;52677;50.898;10.854;2023-01-26T00:50:05;99156.53;;;-3.18;100.00
65897;BME280;52677;50.898;10.854;2023-01-26T00:52:06;99157.34;;;-3.12;100.00
65897;BME280;52677;50.898;10.854;2023-01-26T00:54:06;99154.13;;;-3.14;100.00
65897;BME280;52677;50.898;10.854;2023-01-26T00:56:07;99154.91;;;-3.19;100.00
65897;BME280;52677;50.898;10.854;2023-01-26T00:58:08;99150.88;;;-3.21;100.00
65897;BME280;52677;50.898;10.854;2023-01-26T01:00:09;99150.88;;;-3.21;100.00
65897;BME280;52677;50.898;10.854;2023-01-26T01:02:12;99152.75;;;-3.22;100.00
65897;BME280;52677;50.898;10.854;2023-01-26T01:04:13;99152.47;;;-3.20;100.00
65897;BME280;52677;50.898;10.854;2023-01-26T01:06:14;99149.75;;;-3.25;100.00
65897;BME280;52677;50.898;10.854;2023-01-26T01:08:14;99158.97;;;-3.21;100.00
65897;BME280;52677;50.898;10.854;2023-01-26T01:10:15;99155.72;;;-3.28;100.00
65897;BME280;52677;50.898;10.854;2023-01-26T01:12:15;99171.44;;;-3.30;100.00
65897;BME280;52677;50.898;10.854;2023-01-26T01:14:16;99155.44;;;-3.32;100.00
65897;BME280;52677;50.898;10.854;2023-01-26T01:16:16;99156.00;;;-3.35;100.00
65897;BME280;52677;50.898;10.854;2023-01-26T01:18:17;99149.25;;;-3.37;100.00
65897;BME280;52677;50.898;10.854;2023-01-26T01:20:17;99155.19;;;-3.30;100.00
65897;BME280;52677;50.898;10.854;2023-01-26T01:22:18;99145.16;;;-3.25;100.00
65897;BME280;52677;50.898;10.854;2023-01-26T01:24:18;99147.31;;;-3.17;100.00
65897;BME280;52677;50.898;10.854;2023-01-26T01:26:18;99147.03;;;-3.15;100.00
65897;BME280;52677;50.898;10.854;2023-01-26T01:28:19;99140.00;;;-3.16;100.00
65897;BME280;52677;50.898;10.854;2023-01-26T01:30:19;99130.28;;;-3.12;100.00
65897;BME280;52677;50.898;10.854;2023-01-26T01:32:19;99122.94;;;-3.06;100.00
65897;BME280;52677;50.898;10.854;2023-01-26T01:34:20;99135.94;;;-3.03;100.00
65897;BME280;52677;50.898;10.854;2023-01-26T01:36:20;99137.31;;;-3.06;100.00
65897;BME280;52677;50.898;10.854;2023-01-26T01:38:21;99133.53;;;-3.10;100.00
65897;BME280;52677;50.898;10.854;2023-01-26T01:40:21;99140.84;;;-3.11;100.00
65897;BME280;52677;50.898;10.854;2023-01-26T01:42:22;99141.91;;;-3.12;100.00
65897;BME280;52677;50.898;10.854;2023-01-26T01:44:24;99136.22;;;-3.10;100.00
65897;BME280;52677;50.898;10.854;2023-01-26T01:46:33;99134.59;;;-3.11;100.00
65897;BME280;52677;50.898;10.854;2023-01-26T01:48:42;99133.00;;;-3.12;100.00
65897;BME280;52677;50.898;10.854;2023-01-26T01:50:45;99127.84;;;-3.14;100.00
65897;BME280;52677;50.898;10.854;2023-01-26T01:52:47;99121.63;;;-3.14;100.00
65897;BME280;52677;50.898;10.854;2023-01-26T01:55:07;99119.97;;;-3.15;100.00
65897;BME280;52677;50.898;10.854;2023-01-26T01:57:12;99119.19;;;-3.11;100.00
65897;BME280;52677;50.898;10.854;2023-01-26T01:59:17;99117.84;;;-3.13;100.00
65897;BME280;52677;50.898;10.854;2023-01-26T02:01:21;99112.16;;;-3.12;100.00
65897;BME280;52677;50.898;10.854;2023-01-26T02:03:22;99114.03;;;-3.17;100.00
65897;BME280;52677;50.898;10.854;2023-01-26T02:05:25;99110.53;;;-3.18;100.00
65897;BME280;52677;50.898;10.854;2023-01-26T02:07:31;99110.50;;;-3.23;100.00
65897;BME280;52677;50.898;10.854;2023-01-26T02:09:34;99101.06;;;-3.30;100.00
65897;BME280;52677;50.898;10.854;2023-01-26T02:12:00;99098.63;;;-3.32;100.00
65897;BME280;52677;50.898;10.854;2023-01-26T02:14:04;99097.56;;;-3.31;100.00
65897;BME280;52677;50.898;10.854;2023-01-26T02:16:05;99104.03;;;-3.32;100.00
65897;BME280;52677;50.898;10.854;2023-01-26T02:18:06;99086.44;;;-3.34;100.00
65897;BME280;52677;50.898;10.854;2023-01-26T02:20:20;99096.19;;;-3.33;100.00
65897;BME280;52677;50.898;10.854;2023-01-26T02:22:54;99090.25;;;-3.30;100.00
65897;BME280;52677;50.898;10.854;2023-01-26T02:25:03;99085.91;;;-3.31;100.00
65897;BME280;52677;50.898;10.854;2023-01-26T02:27:05;99077.53;;;-3.35;100.00
65897;BME280;52677;50.898;10.854;2023-01-26T02:29:09;99087.53;;;-3.30;100.00
65897;BME280;52677;50.898;10.854;2023-01-26T02:31:10;99072.66;;;-3.38;100.00
65897;BME280;52677;50.898;10.854;2023-01-26T02:33:17;99069.69;;;-3.36;100.00
65897;BME280;52677;50.898;10.854;2023-01-26T02:35:18;99075.34;;;-3.33;100.00
65897;BME280;52677;50.898;10.854;2023-01-26T02:37:18;99076.97;;;-3.27;100.00
65897;BME280;52677;50.898;10.854;2023-01-26T02:39:40;99075.63;;;-3.34;100.00
65897;BME280;52677;50.898;10.854;2023-01-26T02:41:44;99070.22;;;-3.34;100.00
65897;BME280;52677;50.898;10.854;2023-01-26T02:44:07;99068.31;;;-3.34;100.00
65897;BME280;52677;50.898;10.854;2023-01-26T02:46:07;99059.41;;;-3.34;100.00
65897;BME280;52677;50.898;10.854;2023-01-26T02:48:08;99067.22;;;-3.33;100.00
65897;BME280;52677;50.898;10.854;2023-01-26T02:50:09;99050.75;;;-3.36;100.00
65897;BME280;52677;50.898;10.854;2023-01-26T02:52:09;99046.94;;;-3.35;100.00
65897;BME280;52677;50.898;10.854;2023-01-26T02:54:10;99050.75;;;-3.36;100.00
65897;BME280;52677;50.898;10.854;2023-01-26T02:56:30;99045.88;;;-3.34;100.00
65897;BME280;52677;50.898;10.854;2023-01-26T02:58:30;99047.22;;;-3.37;100.00
65897;BME280;52677;50.898;10.854;2023-01-26T03:00:33;99046.66;;;-3.34;100.00
65897;BME280;52677;50.898;10.854;2023-01-26T03:02:36;99049.41;;;-3.39;100.00
65897;BME280;52677;50.898;10.854;2023-01-26T03:04:36;99044.25;;;-3.41;100.00
65897;BME280;52677;50.898;10.854;2023-01-26T03:06:37;99038.31;;;-3.37;100.00
65897;BME280;52677;50.898;10.854;2023-01-26T03:08:38;99053.44;;;-3.36;100.00
65897;BME280;52677;50.898;10.854;2023-01-26T03:10:38;99043.16;;;-3.40;100.00
65897;BME280;52677;50.898;10.854;2023-01-26T03:12:39;99053.72;;;-3.38;100.00
65897;BME280;52677;50.898;10.854;2023-01-26T03:14:40;99051.56;;;-3.36;100.00
65897;BME280;52677;50.898;10.854;2023-01-26T03:16:40;99048.84;;;-3.36;100.00
65897;BME280;52677;50.898;10.854;2023-01-26T03:18:41;99049.41;;;-3.39;100.00
65897;BME280;52677;50.898;10.854;2023-01-26T03:21:02;99049.94;;;-3.37;100.00
65897;BME280;52677;50.898;10.854;2023-01-26T03:23:21;99044.53;;;-3.37;100.00
65897;BME280;52677;50.898;10.854;2023-01-26T03:25:40;99052.91;;;-3.38;100.00
65897;BME280;52677;50.898;10.854;2023-01-26T03:27:58;99048.31;;;-3.43;100.00
65897;BME280;52677;50.898;10.854;2023-01-26T03:29:59;99046.41;;;-3.43;100.00
65897;BME280;52677;50.898;10.854;2023-01-26T03:31:59;99052.63;;;-3.42;100.00
65897;BME280;52677;50.898;10.854;2023-01-26T03:34:00;99036.69;;;-3.44;100.00
65897;BME280;52677;50.898;10.854;2023-01-26T03:36:00;99040.72;;;-3.41;100.00
65897;BME280;52677;50.898;10.854;2023-01-26T03:38:00;99042.63;;;-3.42;100.00
65897;BME280;52677;50.898;10.854;2023-01-26T03:40:04;99035.88;;;-3.39;100.00
65897;BME280;52677;50.898;10.854;2023-01-26T03:42:23;99041.00;;;-3.43;100.00
65897;BME280;52677;50.898;10.854;2023-01-26T03:44:42;99042.09;;;-3.49;100.00
65897;BME280;52677;50.898;10.854;2023-01-26T03:47:00;99038.28;;;-3.48;100.00
65897;BME280;52677;50.898;10.854;2023-01-26T03:49:19;99041.56;;;-3.46;100.00
65897;BME280;52677;50.898;10.854;2023-01-26T03:51:38;99045.59;;;-3.43;100.00
65897;BME280;52677;50.898;10.854;2023-01-26T03:53:57;99037.25;;;-3.47;100.00
65897;BME280;52677;50.898;10.854;2023-01-26T03:56:15;99032.09;;;-3.53;100.00
65897;BME280;52677;50.898;10.854;2023-01-26T03:58:23;99032.38;;;-3.55;100.00
65897;BME280;52677;50.898;10.854;2023-01-26T04:00:23;99029.66;;;-3.60;100.00
65897;BME280;52677;50.898;10.854;2023-01-26T04:02:24;99021.03;;;-3.62;100.00
65897;BME280;52677;50.898;10.854;2023-01-26T04:04:42;99019.41;;;-3.63;100.00
65897;BME280;52677;50.898;10.854;2023-01-26T04:07:01;99016.94;;;-3.64;100.00
65897;BME280;52677;50.898;10.854;2023-01-26T04:09:20;99021.28;;;-3.58;100.00
65897;BME280;52677;50.898;10.854;2023-01-26T04:11:21;99023.69;;;-3.57;100.00
65897;BME280;52677;50.898;10.854;2023-01-26T04:13:22;99026.97;;;-3.55;100.00
65897;BME280;52677;50.898;10.854;2023-01-26T04:15:42;99019.38;;;-3.58;100.00
65897;BME280;52677;50.898;10.854;2023-01-26T04:18:05;99021.31;;;-3.63;100.00
65897;BME280;52677;50.898;10.854;2023-01-26T04:20:24;99029.41;;;-3.63;100.00
65897;BME280;52677;50.898;10.854;2023-01-26T04:22:43;99017.50;;;-3.73;100.00
65897;BME280;52677;50.898;10.854;2023-01-26T04:24:44;99012.91;;;-3.72;100.00
65897;BME280;52677;50.898;10.854;2023-01-26T04:26:44;99017.25;;;-3.71;100.00
65897;BME280;52677;50.898;10.854;2023-01-26T04:28:44;99023.19;;;-3.74;100.00
65897;BME280;52677;50.898;10.854;2023-01-26T04:30:45;99017.78;;;-3.74;100.00
65897;BME280;52677;50.898;10.854;2023-01-26T04:32:45;99019.66;;;-3.70;100.00
65897;BME280;52677;50.898;10.854;2023-01-26T04:34:45;99026.41;;;-3.67;100.00
65897;BME280;52677;50.898;10.854;2023-01-26T04:36:46;99012.66;;;-3.71;100.00
65897;BME280;52677;50.898;10.854;2023-01-26T04:38:46;99011.03;;;-3.72;100.00
65897;BME280;52677;50.898;10.854;2023-01-26T04:40:53;99003.72;;;-3.71;100.00
65897;BME280;52677;50.898;10.854;2023-01-26T04:42:53;98998.84;;;-3.69;100.00
65897;BME280;52677;50.898;10.854;2023-01-26T04:44:54;99010.72;;;-3.65;100.00
65897;BME280;52677;50.898;10.854;2023-01-26T04:46:54;98995.31;;;-3.64;100.00
65897;BME280;52677;50.898;10.854;2023-01-26T04:48:54;99001.00;;;-3.61;100.00
65897;BME280;52677;50.898;10.854;2023-01-26T04:50:56;98998.00;;;-3.59;100.00
65897;BME280;52677;50.898;10.854;2023-01-26T04:52:57;99002.63;;;-3.55;100.00
65897;BME280;52677;50.898;10.854;2023-01-26T04:54:57;99002.34;;;-3.53;100.00
65897;BME280;52677;50.898;10.854;2023-01-26T04:56:58;98996.13;;;-3.59;100.00
65897;BME280;52677;50.898;10.854;2023-01-26T04:58:59;98998.81;;;-3.59;100.00
65897;BME280;52677;50.898;10.854;2023-01-26T05:01:00;98995.06;;;-3.63;100.00
65897;BME280;52677;50.898;10.854;2023-01-26T05:03:00;98995.06;;;-3.63;100.00
65897;BME280;52677;50.898;10.854;2023-01-26T05:05:01;99007.22;;;-3.65;100.00
65897;BME280;52677;50.898;10.854;2023-01-26T05:07:01;99000.72;;;-3.64;100.00
65897;BME280;52677;50.898;10.854;2023-01-26T05:09:02;99003.69;;;-3.66;100.00
65897;BME280;52677;50.898;10.854;2023-01-26T05:11:03;99000.72;;;-3.64;100.00
65897;BME280;52677;50.898;10.854;2023-01-26T05:13:04;98996.69;;;-3.77;100.00
65897;BME280;52677;50.898;10.854;2023-01-26T05:15:04;99009.91;;;-3.81;100.00
65897;BME280;52677;50.898;10.854;2023-01-26T05:17:05;99002.91;;;-3.77;100.00
65897;BME280;52677;50.898;10.854;2023-01-26T05:19:05;98999.94;;;-3.80;100.00
65897;BME280;52677;50.898;10.854;2023-01-26T05:21:06;98992.34;;;-3.73;100.00
65897;BME280;52677;50.898;10.854;2023-01-26T05:23:06;98988.56;;;-3.77;100.00
65897;BME280;52677;50.898;10.854;2023-01-26T05:25:07;98999.13;;;-3.76;100.00
65897;BME280;52677;50.898;10.854;2023-01-26T05:27:07;98990.19;;;-3.76;100.00
65897;BME280;52677;50.898;10.854;2023-01-26T05:29:20;98986.41;;;-3.75;100.00
65897;BME280;52677;50.898;10.854;2023-01-26T05:31:20;98994.53;;;-3.75;100.00
65897;BME280;52677;50.898;10.854;2023-01-26T05:33:20;98989.66;;;-3.78;100.00
65897;BME280;52677;50.898;10.854;2023-01-26T05:35:21;99008.56;;;-3.73;100.00
65897;BME280;52677;50.898;10.854;2023-01-26T05:37:23;99002.09;;;-3.77;100.00
65897;BME280;52677;50.898;10.854;2023-01-26T05:39:24;99003.72;;;-3.81;100.00
65897;BME280;52677;50.898;10.854;2023-01-26T05:41:24;99001.81;;;-3.81;100.00
65897;BME280;52677;50.898;10.854;2023-01-26T05:43:25;98999.94;;;-3.75;100.00
65897;BME280;52677;50.898;10.854;2023-01-26T05:45:25;99001.81;;;-3.76;100.00
65897;BME280;52677;50.898;10.854;2023-01-26T05:47:26;99008.56;;;-3.73;100.00
65897;BME280;52677;50.898;10.854;2023-01-26T05:49:26;99008.31;;;-3.77;100.00
65897;BME280;52677;50.898;10.854;2023-01-26T05:51:27;99009.13;;;-3.76;100.00
65897;BME280;52677;50.898;10.854;2023-01-26T05:53:28;99011.81;;;-3.76;100.00
65897;BME280;52677;50.898;10.854;2023-01-26T05:55:28;99008.84;;;-3.75;100.00
65897;BME280;52677;50.898;10.854;2023-01-26T05:57:29;99011.56;;;-3.70;100.00
65897;BME280;52677;50.898;10.854;2023-01-26T05:59:29;99004.78;;;-3.62;100.00
65897;BME280;52677;50.898;10.854;2023-01-26T06:01:29;99016.41;;;-3.61;100.00
65897;BME280;52677;50.898;10.854;2023-01-26T06:03:29;99007.22;;;-3.76;100.00
65897;BME280;52677;50.898;10.854;2023-01-26T06:05:30;99003.72;;;-3.76;100.00
65897;BME280;52677;50.898;10.854;2023-01-26T06:07:30;99011.03;;;-3.72;100.00
65897;BME280;52677;50.898;10.854;2023-01-26T06:09:31;99011.56;;;-3.75;100.00
65897;BME280;52677;50.898;10.854;2023-01-26T06:11:32;99016.69;;;-3.73;100.00
65897;BME280;52677;50.898;10.854;2023-01-26T06:13:32;99015.06;;;-3.69;100.00
65897;BME280;52677;50.898;10.854;2023-01-26T06:15:33;99012.91;;;-3.72;100.00
65897;BME280;52677;50.898;10.854;2023-01-26T06:17:33;99017.22;;;-3.81;100.00
65897;BME280;52677;50.898;10.854;2023-01-26T06:19:33;99015.34;;;-3.81;100.00
65897;BME280;52677;50.898;10.854;2023-01-26T06:21:35;99025.09;;;-3.85;100.00
65897;BME280;52677;50.898;10.854;2023-01-26T06:23:36;99025.63;;;-3.78;100.00
65897;BME280;52677;50.898;10.854;2023-01-26T06:25:37;99031.03;;;-3.78;100.00
65897;BME280;52677;50.898;10.854;2023-01-26T06:27:40;99032.38;;;-3.75;100.00
65897;BME280;52677;50.898;10.854;2023-01-26T06:29:41;99033.75;;;-3.78;100.00
65897;BME280;52677;50.898;10.854;2023-01-26T06:31:42;99033.22;;;-3.80;100.00
65897;BME280;52677;50.898;10.854;2023-01-26T06:33:42;99030.22;;;-3.78;100.00
65897;BME280;52677;50.898;10.854;2023-01-26T06:35:42;99025.09;;;-3.80;100.00
65897;BME280;52677;50.898;10.854;2023-01-26T06:37:43;99033.22;;;-3.80;100.00
65897;BME280;52677;50.898;10.854;2023-01-26T06:39:44;99031.03;;;-3.78;100.00
65897;BME280;52677;50.898;10.854;2023-01-26T06:41:44;99033.44;;;-3.81;100.00
65897;BME280;52677;50.898;10.854;2023-01-26T06:43:46;99043.22;;;-3.80;100.00
65897;BME280;52677;50.898;10.854;2023-01-26T06:45:47;99036.16;;;-3.86;100.00
65897;BME280;52677;50.898;10.854;2023-01-26T06:47:50;99040.22;;;-3.79;100.00
65897;BME280;52677;50.898;10.854;2023-01-26T06:49:50;99020.47;;;-3.84;100.00
65897;BME280;52677;50.898;10.854;2023-01-26T06:52:20;99036.44;;;-3.78;100.00
65897;BME280;52677;50.898;10.854;2023-01-26T06:54:21;99027.25;;;-3.87;100.00
65897;BME280;52677;50.898;10.854;2023-01-26T06:56:22;99034.53;;;-3.92;100.00
65897;BME280;52677;50.898;10.854;2023-01-26T06:58:23;99036.97;;;-3.91;100.00
65897;BME280;52677;50.898;10.854;2023-01-26T07:00:23;99032.38;;;-3.90;100.00
65897;BME280;52677;50.898;10.854;2023-01-26T07:02:24;99039.66;;;-3.91;100.00
65897;BME280;52677;50.898;10.854;2023-01-26T07:04:25;99033.19;;;-3.85;100.00
65897;BME280;52677;50.898;10.854;2023-01-26T07:06:26;99032.38;;;-3.90;100.00
65897;BME280;52677;50.898;10.854;2023-01-26T07:08:26;99036.44;;;-3.93;100.00
65897;BME280;52677;50.898;10.854;2023-01-26T07:10:27;99041.56;;;-3.91;100.00
65897;BME280;52677;50.898;10.854;2023-01-26T07:12:37;99034.81;;;-3.94;100.00
65897;BME280;52677;50.898;10.854;2023-01-26T07:14:37;99037.78;;;-3.96;100.00
65897;BME280;52677;50.898;10.854;2023-01-26T07:16:38;99038.06;;;-3.97;100.00
65897;BME280;52677;50.898;10.854;2023-01-26T07:18:38;99033.47;;;-3.97;100.00
65897;BME280;52677;50.898;10.854;2023-01-26T07:20:38;99036.19;;;-3.97;100.00
65897;BME280;52677;50.898;10.854;2023-01-26T07:22:39;99036.19;;;-3.97;100.00
65897;BME280;52677;50.898;10.854;2023-01-26T07:24:39;99045.63;;;-3.94;100.00
65897;BME280;52677;50.898;10.854;2023-01-26T07:26:39;99044.81;;;-3.94;100.00
65897;BME280;52677;50.898;10.854;2023-01-26T07:28:40;99044.81;;;-3.89;100.00
65897;BME280;52677;50.898;10.854;2023-01-26T07:30:40;99038.59;;;-3.90;100.00
65897;BME280;52677;50.898;10.854;2023-01-26T07:32:41;99046.44;;;-3.88;100.00
65897;BME280;52677;50.898;10.854;2023-01-26T07:34:41;99039.16;;;-3.88;100.00
65897;BME280;52677;50.898;10.854;2023-01-26T07:36:41;99042.09;;;-3.89;100.00
65897;BME280;52677;50.898;10.854;2023-01-26T07:38:42;99034.25;;;-3.91;100.00
65897;BME280;52677;50.898;10.854;2023-01-26T07:40:42;99031.03;;;-3.93;100.00
65897;BME280;52677;50.898;10.854;2023-01-26T07:42:43;99036.44;;;-3.93;100.00
65897;BME280;52677;50.898;10.854;2023-01-26T07:44:43;99042.38;;;-3.91;100.00
65897;BME280;52677;50.898;10.854;2023-01-26T07:46:43;99040.22;;;-3.94;100.00
65897;BME280;52677;50.898;10.854;2023-01-26T07:48:43;99034.28;;;-3.96;100.00
65897;BME280;52677;50.898;10.854;2023-01-26T07:50:45;99042.94;;;-3.94;100.00
65897;BME280;52677;50.898;10.854;2023-01-26T07:52:47;99038.06;;;-3.92;100.00
65897;BME280;52677;50.898;10.854;2023-01-26T07:54:47;99040.75;;;-3.92;100.00
65897;BME280;52677;50.898;10.854;2023-01-26T07:56:51;99045.38;;;-3.87;100.00
65897;BME280;52677;50.898;10.854;2023-01-26T07:58:54;99038.06;;;-3.97;100.00
65897;BME280;52677;50.898;10.854;2023-01-26T08:00:54;99049.41;;;-3.90;100.00
65897;BME280;52677;50.898;10.854;2023-01-26T08:02:55;99033.47;;;-4.02;100.00
65897;BME280;52677;50.898;10.854;2023-01-26T08:04:56;99034.81;;;-3.99;100.00
65897;BME280;52677;50.898;10.854;2023-01-26T08:06:56;99029.69;;;-3.96;100.00
65897;BME280;52677;50.898;10.854;2023-01-26T08:08:56;99032.91;;;-3.93;100.00
65897;BME280;52677;50.898;10.854;2023-01-26T08:10:58;99032.66;;;-3.92;100.00
65897;BME280;52677;50.898;10.854;2023-01-26T08:12:59;99034.00;;;-3.94;100.00
65897;BME280;52677;50.898;10.854;2023-01-26T08:15:00;99039.41;;;-3.94;100.00
65897;BME280;52677;50.898;10.854;2023-01-26T08:17:01;99043.72;;;-3.93;100.00
65897;BME280;52677;50.898;10.854;2023-01-26T08:19:01;99038.88;;;-3.91;100.00
65897;BME280;52677;50.898;10.854;2023-01-26T08:21:02;99043.75;;;-3.88;100.00
65897;BME280;52677;50.898;10.854;2023-01-26T08:23:02;99043.72;;;-3.83;100.00
65897;BME280;52677;50.898;10.854;2023-01-26T08:25:03;99043.19;;;-3.90;100.00
65897;BME280;52677;50.898;10.854;2023-01-26T08:27:03;99051.28;;;-3.90;100.00
65897;BME280;52677;50.898;10.854;2023-01-26T08:29:04;99044.28;;;-3.91;100.00
65897;BME280;52677;50.898;10.854;2023-01-26T08:31:13;99040.19;;;-3.89;100.00
65897;BME280;52677;50.898;10.854;2023-01-26T08:33:16;99051.28;;;-3.90;100.00
65897;BME280;52677;50.898;10.854;2023-01-26T08:35:17;99040.75;;;-3.92;100.00
65897;BME280;52677;50.898;10.854;2023-01-26T08:37:17;99043.47;;;-3.87;100.00
65897;BME280;52677;50.898;10.854;2023-01-26T08:39:17;99048.06;;;-3.87;100.00
65897;BME280;52677;50.898;10.854;2023-01-26T08:41:18;99042.38;;;-3.86;100.00
65897;BME280;52677;50.898;10.854;2023-01-26T08:43:19;99051.59;;;-3.87;100.00
65897;BME280;52677;50.898;10.854;2023-01-26T08:45:19;99050.50;;;-3.86;100.00
65897;BME280;52677;50.898;10.854;2023-01-26T08:47:20;99057.25;;;-3.83;100.00
65897;BME280;52677;50.898;10.854;2023-01-26T08:49:20;99058.06;;;-3.83;100.00
65897;BME280;52677;50.898;10.854;2023-01-26T08:51:20;99051.03;;;-3.79;100.00
65897;BME280;52677;50.898;10.854;2023-01-26T08:53:21;99052.13;;;-3.75;100.00
65897;BME280;52677;50.898;10.854;2023-01-26T08:55:22;99061.84;;;-3.74;100.00
65897;BME280;52677;50.898;10.854;2023-01-26T08:57:22;99052.91;;;-3.74;100.00
65897;BME280;52677;50.898;10.854;2023-01-26T08:59:23;99052.38;;;-3.76;100.00
65897;BME280;52677;50.898;10.854;2023-01-26T09:01:23;99051.84;;;-3.78;100.00
65897;BME280;52677;50.898;10.854;2023-01-26T09:03:24;99052.66;;;-3.78;100.00
65897;BME280;52677;50.898;10.854;2023-01-26T09:05:24;99061.59;;;-3.72;100.00
65897;BME280;52677;50.898;10.854;2023-01-26T09:07:24;99059.44;;;-3.70;100.00
65897;BME280;52677;50.898;10.854;2023-01-26T09:09:25;99056.47;;;-3.79;100.00
65897;BME280;52677;50.898;10.854;2023-01-26T09:11:26;99058.34;;;-3.79;100.00
65897;BME280;52677;50.898;10.854;2023-01-26T09:13:26;99068.59;;;-3.81;100.00
65897;BME280;52677;50.898;10.854;2023-01-26T09:15:27;99070.25;;;-3.80;100.00
65897;BME280;52677;50.898;10.854;2023-01-26T09:17:27;99079.16;;;-3.80;100.00
65897;BME280;52677;50.898;10.854;2023-01-26T09:19:27;99072.94;;;-3.70;100.00
65897;BME280;52677;50.898;10.854;2023-01-26T09:21:28;99077.28;;;-3.79;100.00
65897;BME280;52677;50.898;10.854;2023-01-26T09:23:28;99075.91;;;-3.77;100.00
65897;BME280;52677;50.898;10.854;2023-01-26T09:25:29;99072.94;;;-3.80;100.00
65897;BME280;52677;50.898;10.854;2023-01-26T09:27:30;99077.28;;;-3.79;100.00
65897;BME280;52677;50.898;10.854;2023-01-26T09:29:30;99075.91;;;-3.82;100.00
65897;BME280;52677;50.898;10.854;2023-01-26T09:31:30;99075.63;;;-3.90;100.00
65897;BME280;52677;50.898;10.854;2023-01-26T09:33:32;99078.59;;;-3.92;100.00
65897;BME280;52677;50.898;10.854;2023-01-26T09:35:32;99067.00;;;-3.87;100.00
65897;BME280;52677;50.898;10.854;2023-01-26T09:37:33;99076.44;;;-3.90;100.00
65897;BME280;52677;50.898;10.854;2023-01-26T09:39:33;99071.84;;;-3.94;100.00
65897;BME280;52677;50.898;10.854;2023-01-26T09:43:59;99073.72;;;-4.00;100.00
65897;BME280;52677;50.898;10.854;2023-01-26T09:46:21;99078.34;;;-3.96;100.00
65897;BME280;52677;50.898;10.854;2023-01-26T09:51:19;99074.56;;;-3.84;100.00
65897;BME280;52677;50.898;10.854;2023-01-26T09:53:34;99076.72;;;-3.81;100.00
65897;BME280;52677;50.898;10.854;2023-01-26T09:55:40;99074.84;;;-3.86;100.00
65897;BME280;52677;50.898;10.854;2023-01-26T09:58:00;99086.16;;;-3.89;100.00
65897;BME280;52677;50.898;10.854;2023-01-26T10:00:22;99083.22;;;-3.87;100.00
65897;BME280;52677;50.898;10.854;2023-01-26T10:04:36;99076.97;;;-3.93;100.00
65897;BME280;52677;50.898;10.854;2023-01-26T10:06:39;99064.00;;;-3.91;100.00
65897;BME280;52677;50.898;10.854;2023-01-26T10:08:43;99067.50;;;-3.90;100.00
65897;BME280;52677;50.898;10.854;2023-01-26T10:10:48;99063.75;;;-3.84;100.00
65897;BME280;52677;50.898;10.854;2023-01-26T10:12:49;99054.00;;;-3.96;100.00
65897;BME280;52677;50.898;10.854;2023-01-26T10:16:58;99061.28;;;-3.91;100.00
65897;BME280;52677;50.898;10.854;2023-01-26T10:19:05;99054.00;;;-3.90;100.00
65897;BME280;52677;50.898;10.854;2023-01-26T10:21:10;99055.09;;;-3.86;100.00
65897;BME280;52677;50.898;10.854;2023-01-26T10:23:20;99049.41;;;-3.85;100.00
65897;BME280;52677;50.898;10.854;2023-01-26T10:25:29;99048.59;;;-3.75;100.00
65897;BME280;52677;50.898;10.854;2023-01-26T10:27:32;99043.19;;;-3.85;100.00
65897;BME280;52677;50.898;10.854;2023-01-26T10:29:32;99034.81;;;-3.84;100.00
65897;BME280;52677;50.898;10.854;2023-01-26T10:31:33;99041.56;;;-3.81;100.00
65897;BME280;52677;50.898;10.854;2023-01-26T10:33:36;99040.75;;;-3.82;100.00
65897;BME280;52677;50.898;10.854;2023-01-26T10:35:36;99033.19;;;-3.90;100.00
65897;BME280;52677;50.898;10.854;2023-01-26T10:37:37;99032.94;;;-3.88;100.00
65897;BME280;52677;50.898;10.854;2023-01-26T10:39:56;99037.25;;;-3.87;100.00
65897;BME280;52677;50.898;10.854;2023-01-26T10:42:02;99027.22;;;-3.82;100.00
65897;BME280;52677;50.898;10.854;2023-01-26T10:44:19;99025.09;;;-3.80;100.00
65897;BME280;52677;50.898;10.854;2023-01-26T10:48:26;99023.19;;;-3.79;100.00